createdAt,value
2019-02-07T00:01:54.724Z,3.92
2019-02-07T00:06:58.201Z,3.65
2019-02-07T00:12:02.132Z,3.67
2019-02-07T00:17:05.615Z,5.37
2019-02-07T00:22:09.262Z,4.33
2019-02-07T00:27:12.735Z,3.30
2019-02-07T00:32:16.205Z,3.42
2019-02-07T00:37:20.058Z,3.55
2019-02-07T00:42:23.530Z,3.63
2019-02-07T00:47:27.002Z,3.83
2019-02-07T00:52:30.481Z,2.70
2019-02-07T00:57:33.956Z,3.67
2019-02-07T01:02:37.596Z,4.57
2019-02-07T01:07:41.140Z,3.63
2019-02-07T01:12:44.682Z,3.58
2019-02-07T01:17:48.154Z,3.40
2019-02-07T01:22:51.626Z,2.75
2019-02-07T01:27:55.735Z,3.55
2019-02-07T01:32:59.266Z,3.53
2019-02-07T01:38:02.827Z,3.60
2019-02-07T01:43:06.326Z,2.90
2019-02-07T01:48:09.797Z,4.23
2019-02-07T01:53:13.282Z,3.30
2019-02-07T01:58:16.764Z,4.33
2019-02-07T02:03:20.239Z,3.90
2019-02-07T02:08:23.725Z,3.92
2019-02-07T02:13:27.220Z,2.85
2019-02-07T02:18:30.676Z,2.93
2019-02-07T02:23:34.144Z,2.17
2019-02-07T02:28:37.700Z,2.47
2019-02-07T02:33:41.181Z,2.95
2019-02-07T02:38:44.655Z,4.27
2019-02-07T02:43:48.302Z,2.45
2019-02-07T02:48:51.770Z,3.70
2019-02-07T02:53:56.886Z,3.60
2019-02-07T02:59:00.364Z,2.42
2019-02-07T03:04:05.473Z,2.87
2019-02-07T03:09:13.831Z,4.13
2019-02-07T03:14:18.937Z,2.23
2019-02-07T03:19:32.779Z,3.25
2019-02-07T03:24:46.783Z,2.77
2019-02-07T03:30:08.410Z,2.73
2019-02-07T03:35:29.658Z,2.80
2019-02-07T03:40:43.718Z,3.17
2019-02-07T03:46:02.081Z,3.60
2019-02-07T03:50:58.603Z,2.62
2019-02-07T03:56:12.774Z,2.53
2019-02-07T04:01:33.313Z,2.13
2019-02-07T04:06:41.427Z,2.40
2019-02-07T04:11:46.562Z,2.87
2019-02-07T04:16:51.670Z,1.72
2019-02-07T04:21:56.780Z,2.90
2019-02-07T04:27:10.966Z,3.10
2019-02-07T04:32:25.129Z,3.03
2019-02-07T04:37:30.230Z,2.73
2019-02-07T04:42:41.632Z,1.72
2019-02-07T04:48:02.561Z,1.65
2019-02-07T04:53:16.816Z,2.60
2019-02-07T04:58:30.906Z,2.20
2019-02-07T05:03:41.728Z,2.20
2019-02-07T05:08:52.836Z,2.67
2019-02-07T05:14:00.645Z,3.67
2019-02-07T05:19:08.893Z,3.17
2019-02-07T05:24:30.449Z,2.83
2019-02-07T05:29:35.561Z,3.07
2019-02-07T05:34:40.681Z,3.55
2019-02-07T05:39:51.279Z,3.75
2019-02-07T05:44:56.395Z,5.53
2019-02-07T05:50:10.501Z,2.55
2019-02-07T05:55:24.613Z,2.30
2019-02-07T06:00:32.620Z,2.30
2019-02-07T06:05:37.734Z,2.37
2019-02-07T06:10:51.689Z,2.15
2019-02-07T06:15:57.105Z,1.97
2019-02-07T06:21:02.214Z,2.33
2019-02-07T06:26:12.819Z,2.97
2019-02-07T06:31:17.939Z,1.87
2019-02-07T06:36:23.050Z,2.58
2019-02-07T06:41:40.124Z,1.15
2019-02-07T06:46:45.253Z,2.17
2019-02-07T06:51:59.191Z,2.12
2019-02-07T06:57:04.301Z,1.87
2019-02-07T07:02:12.074Z,1.47
2019-02-07T07:07:35.217Z,1.93
2019-02-07T07:12:55.145Z,2.87
2019-02-07T07:18:02.964Z,1.75
2019-02-07T07:23:20.009Z,2.30
2019-02-07T07:28:25.137Z,2.27
2019-02-07T07:33:48.369Z,2.80
2019-02-07T07:39:11.497Z,1.97
2019-02-07T07:44:22.095Z,2.37
2019-02-07T07:49:27.207Z,4.10
2019-02-07T07:54:32.318Z,2.40
2019-02-07T07:59:53.792Z,2.30
2019-02-07T08:04:58.904Z,1.67
2019-02-07T08:10:04.014Z,4.03
2019-02-07T08:15:12.428Z,8.43
2019-02-07T08:20:17.780Z,8.50
2019-02-07T08:25:31.960Z,9.00
2019-02-07T08:30:53.217Z,6.97
2019-02-07T08:36:10.708Z,5.40
2019-02-07T08:41:30.643Z,7.57
2019-02-07T08:46:41.368Z,4.53
2019-02-07T08:52:04.913Z,4.57
2019-02-07T08:57:25.391Z,5.80
2019-02-07T09:02:33.127Z,4.10
2019-02-07T09:07:38.241Z,5.85
2019-02-07T09:12:46.808Z,4.10
2019-02-07T09:18:11.446Z,4.50
2019-02-07T09:23:31.660Z,6.03
2019-02-07T09:28:53.013Z,6.33
2019-02-07T09:34:16.325Z,6.00
2019-02-07T09:39:37.604Z,4.25
2019-02-07T09:44:42.720Z,4.85
2019-02-07T09:49:56.638Z,4.23
2019-02-07T09:55:18.017Z,3.00
2019-02-07T10:00:34.926Z,3.45
2019-02-07T10:05:54.949Z,5.27
2019-02-07T10:11:03.016Z,7.20
2019-02-07T10:16:11.110Z,6.10
2019-02-07T10:21:18.905Z,4.25
2019-02-07T10:26:29.866Z,4.07
2019-02-07T10:31:51.513Z,6.50
2019-02-07T10:37:12.859Z,10.00
2019-02-07T10:42:23.769Z,3.97
2019-02-07T10:47:30.515Z,3.93
2019-02-07T10:52:35.723Z,6.20
2019-02-07T10:57:56.744Z,5.57
2019-02-07T11:03:04.800Z,5.83
2019-02-07T11:08:09.909Z,5.10
2019-02-07T11:13:27.219Z,7.73
2019-02-07T11:18:55.325Z,6.47
2019-02-07T11:24:11.610Z,6.07
2019-02-07T11:29:16.932Z,6.93
2019-02-07T11:34:22.035Z,3.90
2019-02-07T11:39:43.354Z,7.77
2019-02-07T11:44:51.141Z,5.83
2019-02-07T11:49:56.629Z,7.72
2019-02-07T11:55:04.516Z,5.80
2019-02-07T12:00:18.231Z,4.12
2019-02-07T12:05:29.392Z,4.07
2019-02-07T12:10:40.464Z,4.55
2019-02-07T12:15:45.574Z,6.73
2019-02-07T12:20:53.709Z,4.63
2019-02-07T12:25:58.838Z,5.27
2019-02-07T12:31:09.990Z,7.78
2019-02-07T12:36:31.262Z,4.07
2019-02-07T12:41:42.114Z,7.12
2019-02-07T12:46:47.252Z,4.80
2019-02-07T12:51:55.332Z,10.73
2019-02-07T12:57:09.396Z,4.55
2019-02-07T13:02:26.848Z,5.40
2019-02-07T13:07:32.026Z,4.80
2019-02-07T13:12:52.366Z,4.00
2019-02-07T13:17:59.983Z,4.83
2019-02-07T13:23:07.674Z,6.13
2019-02-07T13:28:25.109Z,3.40
2019-02-07T13:33:39.193Z,5.20
2019-02-07T13:39:00.651Z,4.47
2019-02-07T13:44:06.334Z,10.77
2019-02-07T13:49:20.689Z,4.20
2019-02-07T13:54:35.229Z,3.25
2019-02-07T13:59:40.339Z,5.53
2019-02-07T14:05:01.902Z,5.30
2019-02-07T14:10:19.388Z,5.00
2019-02-07T14:15:33.037Z,5.37
2019-02-07T14:20:38.150Z,3.05
2019-02-07T14:25:48.829Z,9.73
2019-02-07T14:31:02.907Z,2.53
2019-02-07T14:36:21.788Z,4.53
2019-02-07T14:41:26.920Z,3.30
2019-02-07T14:46:32.209Z,4.13
2019-02-07T14:51:35.692Z,3.60
2019-02-07T14:56:39.268Z,6.23
2019-02-07T15:01:42.737Z,2.97
2019-02-07T15:06:46.220Z,3.57
2019-02-07T15:11:49.873Z,5.80
2019-02-07T15:16:53.361Z,3.43
2019-02-07T15:21:56.846Z,3.47
2019-02-07T15:27:00.331Z,4.90
2019-02-07T15:32:03.881Z,3.83
2019-02-07T15:37:07.440Z,3.47
2019-02-07T15:42:10.925Z,2.47
2019-02-07T15:47:14.409Z,3.23
2019-02-07T15:52:17.906Z,9.97
2019-02-07T15:57:22.073Z,5.10
2019-02-07T16:02:26.005Z,4.80
2019-02-07T16:07:29.489Z,3.47
2019-02-07T16:12:32.972Z,3.80
2019-02-07T16:17:36.530Z,6.23
2019-02-07T16:22:40.085Z,4.40
2019-02-07T16:27:43.738Z,9.80
2019-02-07T16:32:47.223Z,3.17
2019-02-07T16:37:51.352Z,2.30
2019-02-07T16:42:54.831Z,2.47
2019-02-07T16:47:58.313Z,5.43
2019-02-07T16:53:01.945Z,2.30
2019-02-07T16:58:06.366Z,3.47
2019-02-07T17:03:09.906Z,4.05
2019-02-07T17:08:13.389Z,4.50
2019-02-07T17:13:16.876Z,8.37
2019-02-07T17:18:20.433Z,16.93
2019-02-07T17:23:24.092Z,19.00
2019-02-07T17:28:27.972Z,13.68
2019-02-07T17:33:31.459Z,16.13
2019-02-07T17:38:35.024Z,15.97
2019-02-07T17:43:38.514Z,12.13
2019-02-07T17:48:42.008Z,16.03
2019-02-07T17:53:46.050Z,14.63
2019-02-07T17:58:49.544Z,11.50
2019-02-07T18:03:53.106Z,9.33
2019-02-07T18:08:56.599Z,12.07
2019-02-07T18:14:00.326Z,11.73
2019-02-07T18:19:03.883Z,9.80
2019-02-07T18:24:07.823Z,12.17
2019-02-07T18:29:11.866Z,10.40
2019-02-07T18:34:16.276Z,10.97
2019-02-07T18:39:20.311Z,10.67
2019-02-07T18:44:24.646Z,12.40
2019-02-07T18:49:28.981Z,8.47
2019-02-07T18:54:33.414Z,8.20
2019-02-07T18:59:37.441Z,9.80
2019-02-07T19:04:41.367Z,7.67
2019-02-07T19:09:46.228Z,9.63
2019-02-07T19:14:49.955Z,10.10
2019-02-07T19:19:53.791Z,8.80
2019-02-07T19:24:57.710Z,8.50
2019-02-07T19:30:01.548Z,6.95
2019-02-07T19:35:08.883Z,5.95
2019-02-07T19:40:18.266Z,7.87
2019-02-07T19:45:24.631Z,8.70
2019-02-07T19:50:29.494Z,7.33
2019-02-07T19:55:34.446Z,6.37
2019-02-07T20:00:39.421Z,10.00
2019-02-07T20:05:44.350Z,8.03
2019-02-07T20:10:48.791Z,6.60
2019-02-07T20:15:53.330Z,7.70
2019-02-07T20:20:57.355Z,8.00
2019-02-07T20:26:01.685Z,5.90
2019-02-07T20:31:06.020Z,6.93
2019-02-07T20:36:10.158Z,9.00
2019-02-07T20:41:14.286Z,7.20
2019-02-07T20:46:18.307Z,8.70
2019-02-07T20:51:22.168Z,6.03
2019-02-07T20:56:26.641Z,6.70
2019-02-07T21:01:30.629Z,6.73
2019-02-07T21:06:34.248Z,6.40
2019-02-07T21:11:37.873Z,6.03
2019-02-07T21:16:41.434Z,6.35
2019-02-07T21:21:45.063Z,5.67
2019-02-07T21:26:48.560Z,5.60
2019-02-07T21:31:52.333Z,6.87
2019-02-07T21:36:55.818Z,5.85
2019-02-07T21:41:59.305Z,7.67
2019-02-07T21:47:02.807Z,6.23
2019-02-07T21:52:06.293Z,5.77
2019-02-07T21:57:09.787Z,5.63
2019-02-07T22:02:13.281Z,4.90
2019-02-07T22:07:16.772Z,5.45
2019-02-07T22:12:20.538Z,5.20
2019-02-07T22:17:24.043Z,4.90
2019-02-07T22:22:27.524Z,5.58
2019-02-07T22:27:30.990Z,5.03
2019-02-07T22:32:34.461Z,3.10
2019-02-07T22:37:38.278Z,4.07
2019-02-07T22:42:47.755Z,4.90
2019-02-07T22:47:47.121Z,5.63
2019-02-07T22:52:56.771Z,4.67
2019-02-07T22:57:55.935Z,5.57
2019-02-07T23:02:59.774Z,3.53
2019-02-07T23:08:03.247Z,5.30
2019-02-07T23:13:07.765Z,5.07
2019-02-07T23:18:11.395Z,4.67
2019-02-07T23:23:14.867Z,4.40
2019-02-07T23:28:18.621Z,5.05
2019-02-07T23:33:22.098Z,3.77
2019-02-07T23:38:25.567Z,3.43
2019-02-07T23:43:29.105Z,4.83
2019-02-07T23:48:32.688Z,3.92
2019-02-07T23:53:36.630Z,4.30
2019-02-07T23:58:40.106Z,4.90
